createdAt,value
2023-03-07T00:01:16.869Z,22.85
2023-03-07T00:03:50.053Z,23.85
2023-03-07T00:06:36.939Z,25.77
2023-03-07T00:09:16.877Z,25.00
2023-03-07T00:12:03.845Z,26.67
2023-03-07T00:14:36.967Z,27.52
2023-03-07T00:17:23.850Z,24.75
2023-03-07T00:19:56.983Z,23.35
2023-03-07T00:22:43.849Z,23.10
2023-03-07T00:25:17.938Z,24.88
2023-03-07T00:28:04.898Z,24.52
2023-03-07T00:30:37.943Z,24.85
2023-03-07T00:33:24.884Z,26.08
2023-03-07T00:36:09.959Z,23.33
2023-03-07T00:38:57.895Z,22.38
2023-03-07T00:41:34.021Z,22.63
2023-03-07T00:44:21.846Z,21.75
2023-03-07T00:46:54.962Z,24.67
2023-03-07T00:49:41.892Z,23.98
2023-03-07T00:52:15.056Z,23.92
2023-03-07T00:55:01.969Z,25.10
2023-03-07T00:57:34.971Z,23.90
2023-03-07T01:00:21.867Z,23.80
2023-03-07T01:03:03.861Z,23.73
2023-03-07T01:05:57.880Z,23.60
2023-03-07T01:08:44.880Z,22.63
2023-03-07T01:11:19.038Z,23.00
2023-03-07T01:14:07.933Z,23.58
2023-03-07T01:16:44.206Z,23.77
2023-03-07T01:19:30.885Z,23.63
2023-03-07T01:22:03.976Z,23.98
2023-03-07T01:24:50.893Z,23.88
2023-03-07T01:27:23.984Z,23.35
2023-03-07T01:30:12.861Z,22.17
2023-03-07T01:32:52.913Z,22.95
2023-03-07T01:35:45.872Z,23.98
2023-03-07T01:38:19.012Z,27.90
2023-03-07T01:41:08.885Z,27.13
2023-03-07T01:43:42.990Z,25.20
2023-03-07T01:46:56.932Z,22.55
2023-03-07T01:49:47.901Z,22.65
2023-03-07T01:52:55.005Z,38.08
2023-03-07T01:55:43.895Z,36.00
2023-03-07T01:58:20.012Z,28.02
2023-03-07T02:01:06.959Z,28.98
2023-03-07T02:03:49.993Z,24.35
2023-03-07T02:06:41.947Z,25.55
2023-03-07T02:09:27.876Z,25.30
2023-03-07T02:12:08.897Z,24.05
2023-03-07T02:14:53.895Z,25.63
2023-03-07T02:17:27.982Z,24.15
2023-03-07T02:20:56.884Z,25.88
2023-03-07T02:24:13.998Z,27.50
2023-03-07T02:27:00.890Z,25.73
2023-03-07T02:29:40.910Z,25.27
2023-03-07T02:32:34.961Z,27.35
2023-03-07T02:35:37.979Z,28.83
2023-03-07T02:38:31.903Z,26.92
2023-03-07T02:41:19.881Z,25.15
2023-03-07T02:43:59.933Z,26.52
2023-03-07T02:46:46.889Z,25.35
2023-03-07T02:49:27.897Z,25.05
2023-03-07T02:52:21.903Z,25.20
2023-03-07T02:55:15.896Z,24.55
2023-03-07T02:58:02.922Z,24.73
2023-03-07T03:00:37.103Z,24.80
2023-03-07T03:03:23.911Z,24.60
2023-03-07T03:06:03.943Z,25.25
2023-03-07T03:08:50.932Z,24.42
2023-03-07T03:11:30.902Z,24.67
2023-03-07T03:14:24.932Z,23.67
2023-03-07T03:17:11.942Z,22.80
2023-03-07T03:19:45.020Z,23.52
2023-03-07T03:22:31.915Z,23.70
2023-03-07T03:25:05.010Z,22.92
2023-03-07T03:27:51.909Z,23.13
2023-03-07T03:30:26.721Z,23.58
2023-03-07T03:33:13.916Z,24.77
2023-03-07T03:35:47.092Z,22.00
2023-03-07T03:38:33.926Z,22.55
2023-03-07T03:41:11.038Z,24.10
2023-03-07T03:43:58.017Z,24.35
2023-03-07T03:46:31.035Z,24.23
2023-03-07T03:49:22.935Z,23.15
2023-03-07T03:51:56.038Z,23.40
2023-03-07T03:54:42.961Z,22.70
2023-03-07T03:57:18.042Z,24.10
2023-03-07T04:00:04.911Z,23.00
2023-03-07T04:02:38.214Z,23.67
2023-03-07T04:05:24.928Z,22.80
2023-03-07T04:08:04.942Z,24.27
2023-03-07T04:10:58.989Z,24.15
2023-03-07T04:13:45.956Z,25.13
2023-03-07T04:16:19.157Z,23.70
2023-03-07T04:19:05.944Z,23.75
2023-03-07T04:21:39.754Z,23.48
2023-03-07T04:24:26.931Z,23.38
2023-03-07T04:27:00.135Z,23.55
2023-03-07T04:29:46.926Z,21.75
2023-03-07T04:32:20.177Z,23.50
2023-03-07T04:35:06.981Z,23.33
2023-03-07T04:37:46.935Z,22.05
2023-03-07T04:40:41.061Z,24.40
2023-03-07T04:43:34.946Z,23.67
2023-03-07T04:46:15.990Z,21.02
2023-03-07T04:48:55.959Z,23.00
2023-03-07T04:51:30.045Z,24.65
2023-03-07T04:54:16.937Z,21.67
2023-03-07T04:56:50.107Z,21.92
2023-03-07T04:59:37.087Z,20.67
2023-03-07T05:02:10.065Z,20.00
2023-03-07T05:04:56.974Z,20.98
2023-03-07T05:07:37.068Z,22.65
2023-03-07T05:10:23.927Z,19.88
2023-03-07T05:12:57.064Z,21.70
2023-03-07T05:15:44.055Z,23.00
2023-03-07T05:18:24.013Z,21.67
2023-03-07T05:21:10.952Z,19.60
2023-03-07T05:23:44.120Z,20.55
2023-03-07T05:26:30.959Z,22.77
2023-03-07T05:29:04.547Z,21.83
2023-03-07T05:31:50.965Z,24.27
2023-03-07T05:34:24.121Z,22.35
2023-03-07T05:37:10.942Z,26.63
2023-03-07T05:39:44.051Z,27.10
2023-03-07T05:42:30.957Z,25.27
2023-03-07T05:45:04.139Z,25.67
2023-03-07T05:47:50.973Z,23.15
2023-03-07T05:50:31.957Z,24.55
2023-03-07T05:53:25.977Z,26.48
2023-03-07T05:56:12.992Z,24.52
2023-03-07T05:58:52.975Z,23.38
2023-03-07T06:01:47.968Z,23.30
2023-03-07T06:04:42.006Z,21.25
2023-03-07T06:07:28.977Z,22.55
2023-03-07T06:10:08.953Z,20.63
2023-03-07T06:13:06.962Z,21.15
2023-03-07T06:15:57.973Z,19.20
2023-03-07T06:18:32.067Z,18.83
2023-03-07T06:21:22.963Z,18.48
2023-03-07T06:24:02.972Z,19.73
2023-03-07T06:26:56.987Z,20.25
2023-03-07T06:29:50.979Z,21.38
2023-03-07T06:32:45.976Z,20.00
2023-03-07T06:35:32.997Z,21.00
2023-03-07T06:38:13.003Z,19.75
2023-03-07T06:41:09.978Z,19.02
2023-03-07T06:43:59.974Z,20.48
2023-03-07T06:46:33.093Z,18.90
2023-03-07T06:49:19.982Z,19.13
2023-03-07T06:51:53.121Z,22.55
2023-03-07T06:54:39.967Z,23.58
2023-03-07T06:57:13.080Z,22.60
2023-03-07T06:59:59.983Z,22.45
2023-03-07T07:02:33.219Z,22.70
2023-03-07T07:05:19.992Z,22.88
2023-03-07T07:07:53.112Z,22.77
2023-03-07T07:10:40.013Z,22.17
2023-03-07T07:13:13.084Z,23.90
2023-03-07T07:15:59.984Z,26.00
2023-03-07T07:18:33.089Z,22.92
2023-03-07T07:21:20.011Z,23.40
2023-03-07T07:23:53.106Z,25.60
2023-03-07T07:26:39.980Z,25.38
2023-03-07T07:29:13.660Z,23.85
2023-03-07T07:32:00.046Z,22.50
2023-03-07T07:34:33.128Z,22.73
2023-03-07T07:37:20.034Z,19.77
2023-03-07T07:39:53.074Z,19.20
2023-03-07T07:42:40.012Z,19.15
2023-03-07T07:45:14.096Z,20.73
2023-03-07T07:48:01.000Z,23.02
2023-03-07T07:50:34.152Z,24.38
2023-03-07T07:53:24.000Z,22.02
2023-03-07T07:56:04.024Z,23.20
2023-03-07T07:58:51.014Z,25.80
2023-03-07T08:01:37.046Z,21.33
2023-03-07T08:04:31.015Z,21.23
2023-03-07T08:07:25.010Z,20.65
2023-03-07T08:10:12.037Z,18.27
2023-03-07T08:12:52.005Z,18.35
2023-03-07T08:15:46.077Z,19.85
2023-03-07T08:18:33.020Z,20.10
2023-03-07T08:21:06.206Z,19.70
2023-03-07T08:23:53.047Z,19.40
2023-03-07T08:26:26.727Z,20.20
2023-03-07T08:29:13.032Z,20.23
2023-03-07T08:31:51.827Z,19.55
2023-03-07T08:34:39.094Z,20.35
2023-03-07T08:37:12.193Z,20.30
2023-03-07T08:39:59.007Z,21.58
2023-03-07T08:42:32.185Z,20.55
2023-03-07T08:45:19.026Z,21.60
2023-03-07T08:47:52.137Z,21.80
2023-03-07T08:50:39.030Z,20.55
2023-03-07T08:53:19.013Z,20.38
2023-03-07T08:56:13.052Z,20.85
2023-03-07T08:59:07.024Z,22.25
2023-03-07T09:01:54.126Z,17.77
2023-03-07T09:04:27.173Z,18.83
2023-03-07T09:07:14.038Z,22.52
2023-03-07T09:09:54.027Z,23.58
2023-03-07T09:12:48.030Z,25.65
2023-03-07T09:15:42.037Z,22.00
2023-03-07T09:18:36.020Z,18.77
2023-03-07T09:21:30.035Z,19.35
2023-03-07T09:24:24.056Z,19.75
2023-03-07T09:27:18.059Z,21.95
2023-03-07T09:30:12.053Z,21.83
2023-03-07T09:33:06.075Z,21.70
2023-03-07T09:36:00.120Z,22.48
2023-03-07T09:38:57.754Z,23.13
2023-03-07T09:42:20.056Z,21.85
2023-03-07T09:45:26.066Z,20.75
2023-03-07T09:48:11.143Z,20.42
2023-03-07T09:51:11.501Z,21.40
2023-03-07T09:54:15.070Z,22.02
2023-03-07T09:57:15.340Z,22.23
2023-03-07T10:00:07.136Z,22.75
2023-03-07T10:02:56.175Z,22.95
2023-03-07T10:05:51.060Z,22.42
2023-03-07T10:08:40.062Z,25.40
2023-03-07T10:12:05.002Z,23.25
2023-03-07T10:15:29.083Z,21.13
2023-03-07T10:18:25.069Z,19.73
2023-03-07T10:21:26.062Z,21.48
2023-03-07T10:24:48.144Z,22.02
2023-03-07T10:27:23.164Z,21.77
2023-03-07T10:30:22.052Z,21.95
2023-03-07T10:33:09.072Z,21.20
2023-03-07T10:36:05.108Z,18.65
2023-03-07T10:38:59.090Z,19.45
2023-03-07T10:41:46.071Z,21.00
2023-03-07T10:44:25.221Z,20.80
2023-03-07T10:47:12.068Z,20.23
2023-03-07T10:49:53.672Z,19.02
2023-03-07T10:52:57.084Z,18.08
2023-03-07T10:55:50.070Z,19.08
2023-03-07T10:58:37.086Z,20.40
2023-03-07T11:01:34.125Z,18.67
2023-03-07T11:04:40.105Z,19.60
2023-03-07T11:07:50.161Z,31.83
2023-03-07T11:10:53.095Z,20.17
2023-03-07T11:13:41.063Z,17.65
2023-03-07T11:16:27.270Z,18.10
2023-03-07T11:19:41.085Z,20.38
2023-03-07T11:22:49.055Z,19.23
2023-03-07T11:25:50.085Z,18.75
2023-03-07T11:28:42.102Z,17.80
2023-03-07T11:31:50.081Z,19.73
2023-03-07T11:35:19.063Z,21.67
2023-03-07T11:38:27.104Z,19.52
2023-03-07T11:41:21.111Z,21.40
2023-03-07T11:44:54.118Z,18.63
2023-03-07T11:48:29.110Z,18.40
2023-03-07T11:51:04.709Z,20.33
2023-03-07T11:54:13.087Z,20.00
2023-03-07T11:57:00.156Z,20.55
2023-03-07T12:00:32.106Z,18.48
2023-03-07T12:03:31.100Z,19.98
2023-03-07T12:06:39.096Z,17.98
2023-03-07T12:09:36.155Z,18.63
2023-03-07T12:12:34.141Z,21.52
2023-03-07T12:15:43.118Z,19.05
2023-03-07T12:18:56.118Z,21.13
2023-03-07T12:22:02.132Z,20.05
2023-03-07T12:24:50.203Z,19.83
2023-03-07T12:27:52.120Z,21.17
2023-03-07T12:30:55.118Z,21.25
2023-03-07T12:33:44.113Z,20.58
2023-03-07T12:36:27.309Z,21.85
2023-03-07T12:39:38.137Z,19.73
2023-03-07T12:42:35.238Z,19.63
2023-03-07T12:45:30.142Z,22.48
2023-03-07T12:48:21.125Z,20.52
2023-03-07T12:51:29.237Z,22.02
2023-03-07T12:54:31.145Z,18.52
2023-03-07T12:57:48.110Z,19.08
2023-03-07T13:00:36.115Z,18.38
2023-03-07T13:03:10.219Z,17.25
2023-03-07T13:05:58.173Z,17.27
2023-03-07T13:08:32.321Z,17.15
2023-03-07T13:11:34.350Z,17.50
2023-03-07T13:14:10.259Z,17.65
2023-03-07T13:17:01.124Z,18.33
2023-03-07T13:19:50.107Z,17.55
2023-03-07T13:22:44.136Z,16.95
2023-03-07T13:25:33.155Z,19.52
2023-03-07T13:28:08.228Z,19.85
2023-03-07T13:31:20.354Z,18.92
2023-03-07T13:33:53.354Z,18.10
2023-03-07T13:36:43.210Z,18.38
2023-03-07T13:40:15.166Z,18.15
2023-03-07T13:43:09.162Z,22.13
2023-03-07T13:46:17.177Z,19.67
2023-03-07T13:49:04.175Z,17.83
2023-03-07T13:51:44.268Z,19.15
2023-03-07T13:54:38.150Z,20.10
2023-03-07T13:57:30.041Z,18.40
2023-03-07T14:00:04.823Z,17.90
2023-03-07T14:02:52.256Z,20.08
2023-03-07T14:05:26.214Z,20.55
2023-03-07T14:08:21.148Z,18.10
2023-03-07T14:10:55.295Z,18.70
2023-03-07T14:14:16.175Z,17.92
2023-03-07T14:16:56.147Z,18.38
2023-03-07T14:19:56.153Z,20.50
2023-03-07T14:22:58.164Z,20.60
2023-03-07T14:25:41.290Z,16.95
2023-03-07T14:28:34.157Z,21.88
2023-03-07T14:31:10.337Z,21.55
2023-03-07T14:33:58.174Z,20.65
2023-03-07T14:36:36.313Z,19.08
2023-03-07T14:39:23.187Z,19.23
2023-03-07T14:42:03.257Z,18.42
2023-03-07T14:45:17.174Z,18.25
2023-03-07T14:48:14.250Z,18.38
2023-03-07T14:51:01.152Z,19.35
2023-03-07T14:53:38.273Z,23.05
2023-03-07T14:56:34.167Z,51.95
2023-03-07T14:59:27.969Z,40.08
2023-03-07T15:02:32.160Z,39.00
2023-03-07T15:05:25.188Z,27.85
2023-03-07T15:08:05.163Z,28.33
2023-03-07T15:10:56.149Z,25.00
2023-03-07T15:13:48.204Z,18.75
2023-03-07T15:16:48.146Z,17.48
2023-03-07T15:19:49.186Z,16.38
2023-03-07T15:22:39.232Z,16.88
2023-03-07T15:25:35.171Z,17.05
2023-03-07T15:28:27.185Z,16.02
2023-03-07T15:31:00.320Z,16.17
2023-03-07T15:33:47.191Z,16.05
2023-03-07T15:36:20.756Z,16.80
2023-03-07T15:39:33.214Z,17.88
2023-03-07T15:42:12.400Z,15.35
2023-03-07T15:45:06.203Z,17.48
2023-03-07T15:47:48.200Z,16.48
2023-03-07T15:50:42.208Z,16.67
2023-03-07T15:54:07.193Z,17.65
2023-03-07T15:57:08.212Z,17.85
2023-03-07T16:00:27.195Z,16.23
2023-03-07T16:03:18.418Z,14.48
2023-03-07T16:06:07.210Z,15.20
2023-03-07T16:08:47.196Z,16.40
2023-03-07T16:11:41.207Z,15.93
2023-03-07T16:14:38.210Z,16.38
2023-03-07T16:17:53.090Z,16.20
2023-03-07T16:20:40.208Z,18.23
2023-03-07T16:23:19.339Z,16.48
2023-03-07T16:26:10.198Z,17.17
2023-03-07T16:28:44.254Z,21.00
2023-03-07T16:31:31.351Z,20.00
2023-03-07T16:34:11.195Z,20.13
2023-03-07T16:37:05.196Z,22.35
2023-03-07T16:39:52.206Z,21.45
2023-03-07T16:42:30.687Z,20.60
2023-03-07T16:45:35.258Z,17.70
2023-03-07T16:48:08.305Z,17.10
2023-03-07T16:50:55.209Z,21.05
2023-03-07T16:53:28.373Z,22.30
2023-03-07T16:56:25.233Z,21.60
2023-03-07T16:58:59.359Z,20.30
2023-03-07T17:01:47.256Z,20.02
2023-03-07T17:04:28.200Z,22.05
2023-03-07T17:07:33.211Z,25.98
2023-03-07T17:10:20.217Z,21.50
2023-03-07T17:12:55.082Z,22.17
2023-03-07T17:15:43.275Z,21.95
2023-03-07T17:18:17.395Z,20.58
2023-03-07T17:21:04.230Z,18.63
2023-03-07T17:23:37.366Z,18.33
2023-03-07T17:26:37.204Z,17.88
2023-03-07T17:29:16.324Z,18.88
2023-03-07T17:32:03.333Z,21.35
2023-03-07T17:34:39.433Z,28.33
2023-03-07T17:37:26.245Z,26.45
2023-03-07T17:40:00.585Z,25.77
2023-03-07T17:42:49.236Z,23.42
2023-03-07T17:45:25.337Z,26.13
2023-03-07T17:48:12.259Z,26.83
2023-03-07T17:50:46.390Z,20.85
2023-03-07T17:53:40.209Z,26.02
2023-03-07T17:56:34.239Z,23.77
2023-03-07T17:59:28.235Z,24.35
2023-03-07T18:02:25.246Z,28.27
2023-03-07T18:05:13.227Z,26.20
2023-03-07T18:07:58.242Z,25.42
2023-03-07T18:10:52.235Z,24.27
2023-03-07T18:13:39.262Z,27.20
2023-03-07T18:16:13.378Z,27.00
2023-03-07T18:19:02.900Z,31.70
2023-03-07T18:21:37.388Z,28.13
2023-03-07T18:24:30.350Z,36.95
2023-03-07T18:27:08.651Z,36.08
2023-03-07T18:29:55.304Z,35.42
2023-03-07T18:32:29.301Z,30.65
2023-03-07T18:35:16.252Z,31.35
2023-03-07T18:37:56.251Z,34.83
2023-03-07T18:40:43.290Z,33.28
2023-03-07T18:43:23.290Z,37.20
2023-03-07T18:46:15.339Z,26.15
2023-03-07T18:48:49.354Z,43.00
2023-03-07T18:51:36.251Z,31.65
2023-03-07T18:54:09.571Z,27.08
2023-03-07T18:56:56.249Z,23.73
2023-03-07T18:59:36.262Z,24.20
2023-03-07T19:02:30.316Z,28.58
2023-03-07T19:05:17.239Z,32.72
2023-03-07T19:07:50.372Z,26.00
2023-03-07T19:10:37.238Z,29.17
2023-03-07T19:13:11.517Z,22.50
2023-03-07T19:16:07.322Z,23.33
2023-03-07T19:18:48.289Z,22.25
2023-03-07T19:21:43.264Z,25.17
2023-03-07T19:24:30.254Z,23.58
2023-03-07T19:27:03.357Z,24.85
2023-03-07T19:29:50.263Z,23.75
2023-03-07T19:32:23.513Z,23.08
2023-03-07T19:35:11.276Z,25.38
2023-03-07T19:37:52.308Z,24.70
2023-03-07T19:40:46.284Z,26.40
2023-03-07T19:43:41.393Z,29.63
2023-03-07T19:46:35.272Z,25.60
2023-03-07T19:49:33.267Z,25.45
2023-03-07T19:52:27.288Z,25.05
2023-03-07T19:55:21.312Z,24.88
2023-03-07T19:58:15.275Z,32.08
2023-03-07T20:01:09.369Z,30.35
2023-03-07T20:03:57.280Z,30.25
2023-03-07T20:06:33.429Z,29.90
2023-03-07T20:09:20.270Z,33.25
2023-03-07T20:12:00.280Z,31.65
2023-03-07T20:14:54.260Z,27.27
2023-03-07T20:17:48.295Z,28.45
2023-03-07T20:20:42.273Z,25.33
2023-03-07T20:23:36.295Z,25.02
2023-03-07T20:26:29.298Z,24.00
2023-03-07T20:29:10.262Z,25.90
2023-03-07T20:32:04.382Z,25.48
2023-03-07T20:34:51.284Z,26.05
2023-03-07T20:37:24.399Z,26.27
2023-03-07T20:40:15.329Z,26.20
2023-03-07T20:42:48.403Z,25.60
2023-03-07T20:45:35.309Z,26.33
2023-03-07T20:48:15.282Z,25.40
2023-03-07T20:51:27.320Z,23.92
2023-03-07T20:54:29.296Z,25.00
2023-03-07T20:57:23.319Z,27.48
2023-03-07T21:00:17.319Z,26.00
2023-03-07T21:03:06.206Z,23.92
2023-03-07T21:05:39.472Z,23.90
2023-03-07T21:08:26.304Z,25.50
2023-03-07T21:11:20.434Z,29.10
2023-03-07T21:14:14.319Z,28.55
2023-03-07T21:17:01.430Z,25.38
2023-03-07T21:19:34.922Z,26.02
2023-03-07T21:22:21.705Z,25.38
2023-03-07T21:24:55.549Z,28.55
2023-03-07T21:27:42.401Z,25.35
2023-03-07T21:30:19.752Z,25.25
2023-03-07T21:33:06.401Z,25.48
2023-03-07T21:35:49.499Z,26.23
2023-03-07T21:38:37.359Z,25.73
2023-03-07T21:41:19.345Z,27.67
2023-03-07T21:44:17.304Z,24.35
2023-03-07T21:47:11.607Z,23.45
2023-03-07T21:49:59.638Z,23.48
2023-03-07T21:52:42.331Z,24.52
2023-03-07T21:55:31.338Z,25.05
2023-03-07T21:58:12.466Z,22.45
2023-03-07T22:01:07.355Z,22.80
2023-03-07T22:04:01.381Z,25.20
2023-03-07T22:06:48.322Z,25.67
2023-03-07T22:09:28.331Z,23.80
2023-03-07T22:12:15.324Z,26.30
2023-03-07T22:14:55.328Z,24.77
2023-03-07T22:17:50.320Z,27.58
2023-03-07T22:20:37.313Z,27.27
2023-03-07T22:23:10.430Z,25.10
2023-03-07T22:25:57.311Z,25.73
2023-03-07T22:28:37.336Z,25.95
2023-03-07T22:31:31.361Z,26.95
2023-03-07T22:34:18.329Z,25.83
2023-03-07T22:36:51.503Z,23.77
2023-03-07T22:39:38.334Z,23.45
2023-03-07T22:42:11.438Z,22.63
2023-03-07T22:44:58.326Z,25.52
2023-03-07T22:47:31.479Z,25.55
2023-03-07T22:50:18.356Z,23.33
2023-03-07T22:52:51.469Z,24.77
2023-03-07T22:55:38.348Z,20.80
2023-03-07T22:58:11.422Z,22.83
2023-03-07T23:00:58.360Z,23.63
2023-03-07T23:03:31.542Z,22.90
2023-03-07T23:06:18.370Z,23.52
2023-03-07T23:08:52.497Z,24.05
2023-03-07T23:11:40.354Z,24.38
2023-03-07T23:14:20.353Z,22.70
2023-03-07T23:17:07.348Z,23.23
2023-03-07T23:19:40.518Z,23.98
2023-03-07T23:22:27.360Z,22.80
2023-03-07T23:25:00.463Z,22.13
2023-03-07T23:27:47.376Z,25.92
2023-03-07T23:30:28.349Z,23.85
2023-03-07T23:33:22.366Z,21.73
2023-03-07T23:36:09.365Z,21.70
2023-03-07T23:38:42.469Z,20.15
2023-03-07T23:41:29.361Z,22.15
2023-03-07T23:44:04.447Z,21.38
2023-03-07T23:46:51.391Z,22.15
2023-03-07T23:49:24.550Z,22.17
2023-03-07T23:52:11.427Z,21.15
2023-03-07T23:54:51.467Z,22.38
2023-03-07T23:57:45.342Z,23.13
